Time;durP1;ratioP1;P1;durP2;ratioP2;P2;SDS_P1;SDS_P2;PMS_P1;PMS_P2;Temp;Humidity;BMP_temperature;BMP_pressure;BME280_temperature;BME280_humidity;BME280_pressure;Samples;Min_cycle;Max_cycle;Signal;HPM_P1;HPM_P2
2022/02/19 00:00:51;;;;;;;;;;;19.00;58.30;;;;;;5014821;28;1314;-69
2022/02/19 00:03:16;;;;;;;;;;;18.90;58.20;;;;;;5013359;28;1269;-69
2022/02/19 00:05:42;;;;;;;;;;;18.90;58.20;;;;;;5015319;28;1381;-69
2022/02/19 00:08:08;;;;;;;;;;;18.90;58.20;;;;;;5012641;28;1694;-69
2022/02/19 00:10:34;;;;;;;;;;;18.90;58.30;;;;;;5013190;28;1981;-69
2022/02/19 00:12:59;;;;;;;;;;;18.90;58.30;;;;;;5013190;28;1072;-69
2022/02/19 00:15:25;;;;;;;;;;;18.90;58.30;;;;;;5014910;28;1323;-69
2022/02/19 00:17:50;;;;;;;;;;;18.90;58.30;;;;;;5013435;28;1221;-69
2022/02/19 00:20:16;;;;;;;;;;;18.90;58.30;;;;;;5014196;28;1085;-69
2022/02/19 00:22:41;;;;;;;;;;;18.90;58.40;;;;;;5013573;28;997;-69
2022/02/19 00:25:08;;;;;;;;;;;18.80;58.30;;;;;;5013061;28;1284;-69
2022/02/19 00:27:34;;;;;;;;;;;18.80;58.30;;;;;;5009967;28;1411;-69
2022/02/19 00:29:59;;;;;;;;;;;18.90;58.40;;;;;;5003212;28;1895;-69
2022/02/19 00:32:25;;;;;;;;;;;18.80;58.40;;;;;;5002364;28;1211;-69
2022/02/19 00:34:51;;;;;;;;;;;18.80;58.40;;;;;;5004058;28;1212;-69
2022/02/19 00:37:16;;;;;;;;;;;18.80;58.40;;;;;;5005923;28;1300;-69
2022/02/19 00:39:42;;;;;;;;;;;18.80;58.40;;;;;;5007362;28;1076;-69
2022/02/19 00:42:07;;;;;;;;;;;18.80;58.40;;;;;;5014318;28;1382;-69
2022/02/19 00:44:33;;;;;;;;;;;18.80;58.50;;;;;;5013053;28;1095;-68
2022/02/19 00:46:59;;;;;;;;;;;18.80;58.50;;;;;;5014291;28;1376;-68
2022/02/19 00:49:24;;;;;;;;;;;18.80;58.50;;;;;;5013716;28;1906;-69
2022/02/19 00:51:50;;;;;;;;;;;18.80;58.50;;;;;;5014318;28;1147;-69
2022/02/19 00:54:15;;;;;;;;;;;18.80;58.50;;;;;;5014233;28;1373;-69
2022/02/19 00:56:41;;;;;;;;;;;18.80;58.50;;;;;;4996260;28;1419;-69
2022/02/19 00:59:06;;;;;;;;;;;18.80;58.60;;;;;;5012181;28;1213;-68
2022/02/19 01:01:32;;;;;;;;;;;18.80;58.60;;;;;;5013711;28;1163;-69
2022/02/19 01:03:57;;;;;;;;;;;18.80;58.60;;;;;;5013880;28;1350;-69
2022/02/19 01:06:22;;;;;;;;;;;18.80;58.60;;;;;;5013676;28;1327;-69
2022/02/19 01:08:49;;;;;;;;;;;18.80;58.60;;;;;;5013252;28;1308;-69
2022/02/19 01:11:14;;;;;;;;;;;18.70;58.60;;;;;;4996525;28;1286;-69
2022/02/19 01:13:40;;;;;;;;;;;18.80;58.70;;;;;;5013365;28;1083;-68
2022/02/19 01:16:05;;;;;;;;;;;18.70;58.60;;;;;;5013510;28;1068;-69
2022/02/19 01:18:31;;;;;;;;;;;18.70;58.60;;;;;;5011274;28;1332;-69
2022/02/19 01:20:56;;;;;;;;;;;18.70;58.70;;;;;;5013770;28;1287;-69
2022/02/19 01:23:22;;;;;;;;;;;18.80;58.70;;;;;;5013566;28;1250;-69
2022/02/19 01:25:47;;;;;;;;;;;18.70;58.70;;;;;;5013501;28;1127;-69
2022/02/19 01:28:12;;;;;;;;;;;18.70;58.70;;;;;;5013007;28;1326;-70
2022/02/19 01:30:38;;;;;;;;;;;18.70;58.70;;;;;;5013227;28;1906;-69
2022/02/19 01:33:03;;;;;;;;;;;18.70;58.70;;;;;;5011823;28;1112;-69
2022/02/19 01:35:29;;;;;;;;;;;18.70;58.70;;;;;;5012021;28;1323;-69
2022/02/19 01:37:54;;;;;;;;;;;18.70;58.70;;;;;;5012890;28;1257;-69
2022/02/19 01:40:20;;;;;;;;;;;18.70;58.70;;;;;;5006621;28;1091;-69
2022/02/19 01:42:45;;;;;;;;;;;18.70;58.80;;;;;;5013467;28;1353;-69
2022/02/19 01:45:11;;;;;;;;;;;18.70;58.80;;;;;;5011860;28;1151;-69
2022/02/19 01:47:36;;;;;;;;;;;18.70;58.80;;;;;;5010800;28;1351;-70
2022/02/19 01:50:02;;;;;;;;;;;18.70;58.80;;;;;;5012690;28;1902;-69
2022/02/19 01:52:28;;;;;;;;;;;18.70;58.80;;;;;;5013189;28;1276;-69
2022/02/19 01:54:53;;;;;;;;;;;18.70;58.80;;;;;;5012042;28;1340;-69
2022/02/19 01:57:19;;;;;;;;;;;18.70;58.80;;;;;;5028442;22;3726;-63
2022/02/19 01:59:44;;;;;;;;;;;18.70;58.80;;;;;;5026800;28;2802;-67
2022/02/19 02:02:10;;;;;;;;;;;18.60;58.80;;;;;;5040479;28;1659;-68
2022/02/19 02:04:35;;;;;;;;;;;18.60;58.80;;;;;;5035386;28;1682;-68
2022/02/19 02:07:02;;;;;;;;;;;18.60;58.80;;;;;;5034765;28;1750;-67
2022/02/19 02:09:27;;;;;;;;;;;18.60;58.80;;;;;;5034111;28;1978;-67
2022/02/19 02:11:53;;;;;;;;;;;18.60;58.80;;;;;;5052702;28;1615;-68
2022/02/19 02:14:18;;;;;;;;;;;18.60;58.90;;;;;;5052735;28;1636;-67
2022/02/19 02:16:43;;;;;;;;;;;18.70;58.90;;;;;;5034372;28;1590;-67
2022/02/19 02:19:09;;;;;;;;;;;18.70;58.90;;;;;;5034142;28;1438;-68
2022/02/19 02:21:35;;;;;;;;;;;18.70;58.90;;;;;;5052765;28;1688;-67
2022/02/19 02:24:01;;;;;;;;;;;18.60;58.90;;;;;;5018173;28;1656;-67
2022/02/19 02:26:26;;;;;;;;;;;18.70;58.90;;;;;;5052794;28;1633;-68
2022/02/19 02:28:51;;;;;;;;;;;18.60;58.90;;;;;;5033624;28;1679;-67
2022/02/19 02:31:17;;;;;;;;;;;18.60;58.90;;;;;;5051592;28;1902;-67
2022/02/19 02:33:42;;;;;;;;;;;18.60;58.90;;;;;;5052195;28;1619;-68
2022/02/19 02:36:08;;;;;;;;;;;18.60;58.90;;;;;;5052584;28;1503;-68
2022/02/19 02:38:33;;;;;;;;;;;18.60;58.90;;;;;;5051118;28;1526;-67
2022/02/19 02:41:01;;;;;;;;;;;18.60;58.90;;;;;;5053020;28;1190;-67
2022/02/19 02:43:27;;;;;;;;;;;18.60;58.90;;;;;;5028647;28;2088;-68
2022/02/19 02:45:52;;;;;;;;;;;18.60;59.00;;;;;;5034311;28;1687;-68
2022/02/19 02:48:18;;;;;;;;;;;18.60;59.00;;;;;;5017840;28;1599;-67
2022/02/19 02:50:43;;;;;;;;;;;18.60;59.00;;;;;;5056404;28;1898;-68
2022/02/19 02:53:09;;;;;;;;;;;18.60;59.00;;;;;;5049332;28;1473;-67
2022/02/19 02:55:34;;;;;;;;;;;18.60;59.00;;;;;;5035726;28;1104;-67
2022/02/19 02:57:59;;;;;;;;;;;18.60;59.00;;;;;;5045620;28;1323;-68
2022/02/19 03:00:25;;;;;;;;;;;18.60;59.00;;;;;;5014289;28;1316;-67
2022/02/19 03:02:50;;;;;;;;;;;18.60;59.10;;;;;;5047930;28;1283;-68
2022/02/19 03:05:16;;;;;;;;;;;18.60;59.10;;;;;;5051681;28;1341;-67
2022/02/19 03:07:41;;;;;;;;;;;18.60;59.10;;;;;;5031033;28;1409;-67
2022/02/19 03:10:07;;;;;;;;;;;18.60;59.10;;;;;;5052138;28;1909;-65
2022/02/19 03:12:32;;;;;;;;;;;18.60;59.10;;;;;;5029674;28;1400;-65
2022/02/19 03:14:58;;;;;;;;;;;18.50;59.10;;;;;;5033654;28;1698;-66
2022/02/19 03:17:23;;;;;;;;;;;18.60;59.10;;;;;;5028254;28;1304;-66
2022/02/19 03:19:49;;;;;;;;;;;18.60;59.10;;;;;;5049305;28;1603;-67
2022/02/19 03:22:14;;;;;;;;;;;18.60;59.10;;;;;;5046779;28;1342;-68
2022/02/19 03:24:39;;;;;;;;;;;18.50;59.10;;;;;;5048007;28;1732;-68
2022/02/19 03:27:05;;;;;;;;;;;18.50;59.10;;;;;;5055665;28;1266;-68
2022/02/19 03:29:30;;;;;;;;;;;18.60;59.20;;;;;;5048419;28;1969;-69
2022/02/19 03:31:56;;;;;;;;;;;18.50;59.10;;;;;;5048381;28;1394;-69
2022/02/19 03:34:21;;;;;;;;;;;18.50;59.10;;;;;;5054457;28;1384;-68
2022/02/19 03:36:47;;;;;;;;;;;18.50;59.10;;;;;;5055526;28;1573;-68
2022/02/19 03:39:12;;;;;;;;;;;18.50;59.20;;;;;;5036748;28;1665;-69
2022/02/19 03:41:38;;;;;;;;;;;18.50;59.20;;;;;;5055405;28;1611;-68
2022/02/19 03:44:03;;;;;;;;;;;18.50;59.20;;;;;;5054363;28;1711;-69
2022/02/19 03:46:29;;;;;;;;;;;18.50;59.20;;;;;;5055147;28;1623;-68
2022/02/19 03:48:54;;;;;;;;;;;18.50;59.20;;;;;;5036517;28;1610;-69
2022/02/19 03:51:19;;;;;;;;;;;18.50;59.20;;;;;;5055562;28;1894;-69
2022/02/19 03:53:45;;;;;;;;;;;18.50;59.20;;;;;;5055445;28;1251;-69
2022/02/19 03:56:10;;;;;;;;;;;18.50;59.20;;;;;;5055651;28;1373;-68
2022/02/19 03:58:36;;;;;;;;;;;18.50;59.20;;;;;;5054195;28;1401;-69
2022/02/19 04:01:01;;;;;;;;;;;18.50;59.20;;;;;;5024755;28;1276;-69
2022/02/19 04:03:27;;;;;;;;;;;18.50;59.20;;;;;;5053341;28;1611;-68
2022/02/19 04:05:53;;;;;;;;;;;18.50;59.30;;;;;;5037625;28;1698;-69
2022/02/19 04:08:18;;;;;;;;;;;18.50;59.30;;;;;;5053832;28;1625;-68
2022/02/19 04:10:44;;;;;;;;;;;18.50;59.30;;;;;;5054739;28;1961;-69
2022/02/19 04:13:09;;;;;;;;;;;18.50;59.30;;;;;;5054959;28;1593;-68
2022/02/19 04:15:35;;;;;;;;;;;18.50;59.30;;;;;;5054910;28;1679;-68
2022/02/19 04:18:00;;;;;;;;;;;18.50;59.30;;;;;;5036496;28;1375;-68
2022/02/19 04:20:26;;;;;;;;;;;18.50;59.30;;;;;;5054381;28;1404;-67
2022/02/19 04:22:51;;;;;;;;;;;18.50;59.30;;;;;;5054804;28;1560;-68
2022/02/19 04:25:17;;;;;;;;;;;18.50;59.30;;;;;;5054999;28;1776;-68
2022/02/19 04:27:42;;;;;;;;;;;18.50;59.30;;;;;;5054432;28;1693;-68
2022/02/19 04:30:08;;;;;;;;;;;18.50;59.40;;;;;;5042241;28;1967;-67
2022/02/19 04:32:33;;;;;;;;;;;18.50;59.30;;;;;;5052657;28;1597;-68
2022/02/19 04:34:59;;;;;;;;;;;18.50;59.30;;;;;;5053297;28;1570;-68
2022/02/19 04:37:24;;;;;;;;;;;18.50;59.40;;;;;;5053936;28;1667;-68
2022/02/19 04:39:50;;;;;;;;;;;18.50;59.40;;;;;;5053765;28;1605;-68
2022/02/19 04:42:15;;;;;;;;;;;18.50;59.40;;;;;;5036686;28;1594;-68
2022/02/19 04:44:41;;;;;;;;;;;18.50;59.40;;;;;;5054269;28;815;-67
2022/02/19 04:47:06;;;;;;;;;;;18.50;59.40;;;;;;5036392;28;1720;-67
2022/02/19 04:49:32;;;;;;;;;;;18.50;59.40;;;;;;5053604;28;1911;-68
2022/02/19 04:51:57;;;;;;;;;;;18.50;60.00;;;;;;5052541;28;1430;-68
2022/02/19 04:54:23;;;;;;;;;;;18.50;59.40;;;;;;5054259;28;1663;-67
2022/02/19 04:56:48;;;;;;;;;;;18.50;59.40;;;;;;5053916;28;1224;-68
2022/02/19 04:59:13;;;;;;;;;;;18.40;59.40;;;;;;5053755;28;1620;-68
2022/02/19 05:01:39;;;;;;;;;;;18.50;59.40;;;;;;5052785;28;1778;-67
2022/02/19 05:04:04;;;;;;;;;;;18.50;59.40;;;;;;5053632;28;1116;-69
2022/02/19 05:06:30;;;;;;;;;;;18.40;59.40;;;;;;5035261;28;1484;-68
2022/02/19 05:08:55;;;;;;;;;;;18.40;59.40;;;;;;5053151;28;1666;-67
2022/02/19 05:11:21;;;;;;;;;;;18.40;59.40;;;;;;5053468;28;1906;-68
2022/02/19 05:13:46;;;;;;;;;;;18.40;59.40;;;;;;5035510;28;1420;-68
2022/02/19 05:16:11;;;;;;;;;;;18.40;59.40;;;;;;5053524;28;1609;-68
2022/02/19 05:18:37;;;;;;;;;;;18.40;59.40;;;;;;5034947;28;1226;-68
2022/02/19 05:21:03;;;;;;;;;;;18.40;59.40;;;;;;5037048;28;1593;-68
2022/02/19 05:23:28;;;;;;;;;;;18.40;59.50;;;;;;5035592;28;1691;-69
2022/02/19 05:25:53;;;;;;;;;;;18.40;59.40;;;;;;5053785;28;1106;-68
2022/02/19 05:28:19;;;;;;;;;;;18.40;59.40;;;;;;5052852;28;1653;-68
2022/02/19 05:30:44;;;;;;;;;;;18.40;59.50;;;;;;5053184;28;1886;-68
2022/02/19 05:33:10;;;;;;;;;;;18.40;59.50;;;;;;5053238;28;1518;-68
2022/02/19 05:35:35;;;;;;;;;;;18.40;59.40;;;;;;5053234;28;1611;-68
2022/02/19 05:38:01;;;;;;;;;;;18.40;59.50;;;;;;5053638;28;1443;-68
2022/02/19 05:40:26;;;;;;;;;;;18.40;59.50;;;;;;5034879;28;1635;-67
2022/02/19 05:42:52;;;;;;;;;;;18.40;59.50;;;;;;5036095;28;1143;-67
2022/02/19 05:45:17;;;;;;;;;;;18.40;59.50;;;;;;5035528;28;1696;-67
2022/02/19 05:47:42;;;;;;;;;;;18.40;59.50;;;;;;5052769;28;1662;-68
2022/02/19 05:50:08;;;;;;;;;;;18.40;59.50;;;;;;5052248;28;1898;-68
2022/02/19 05:52:33;;;;;;;;;;;18.40;59.50;;;;;;5053163;28;1578;-69
2022/02/19 05:54:59;;;;;;;;;;;18.40;59.50;;;;;;5035317;28;1349;-69
2022/02/19 05:57:24;;;;;;;;;;;18.40;59.50;;;;;;5052792;28;1646;-70
2022/02/19 05:59:50;;;;;;;;;;;18.40;59.50;;;;;;5052055;28;1580;-70
2022/02/19 06:02:15;;;;;;;;;;;18.40;59.50;;;;;;5051783;28;1588;-69
2022/02/19 06:04:41;;;;;;;;;;;18.40;59.40;;;;;;5052753;28;1596;-70
2022/02/19 06:07:06;;;;;;;;;;;18.40;59.40;;;;;;5035188;28;1584;-70
2022/02/19 06:09:32;;;;;;;;;;;18.50;59.30;;;;;;5050949;28;1898;-69
2022/02/19 06:11:57;;;;;;;;;;;18.50;59.20;;;;;;5052626;28;1612;-69
2022/02/19 06:14:22;;;;;;;;;;;18.50;59.20;;;;;;5052598;28;1632;-70
2022/02/19 06:16:49;;;;;;;;;;;18.60;59.10;;;;;;5052946;28;1370;-68
2022/02/19 06:19:14;;;;;;;;;;;18.60;59.00;;;;;;5051753;28;1418;-70
2022/02/19 06:21:40;;;;;;;;;;;18.70;59.00;;;;;;5051280;28;1396;-69
2022/02/19 06:24:05;;;;;;;;;;;18.70;58.80;;;;;;5052282;28;1641;-69
2022/02/19 06:26:30;;;;;;;;;;;18.70;58.70;;;;;;5053121;28;1342;-69
2022/02/19 06:28:56;;;;;;;;;;;18.70;58.70;;;;;;5050184;28;1507;-69
2022/02/19 06:31:21;;;;;;;;;;;18.70;58.60;;;;;;5040240;28;1957;-68
2022/02/19 06:33:47;;;;;;;;;;;18.80;58.60;;;;;;5052430;28;1794;-67
2022/02/19 06:36:12;;;;;;;;;;;18.80;58.50;;;;;;5034817;28;1767;-68
2022/02/19 06:38:39;;;;;;;;;;;18.80;58.40;;;;;;5051781;28;1557;-69
2022/02/19 06:41:05;;;;;;;;;;;18.80;58.30;;;;;;5051257;28;1781;-67
2022/02/19 06:43:30;;;;;;;;;;;18.80;58.30;;;;;;5050360;28;1708;-69
2022/02/19 06:45:56;;;;;;;;;;;18.80;58.30;;;;;;5052519;28;1664;-68
2022/02/19 06:48:21;;;;;;;;;;;18.90;58.30;;;;;;5051508;28;1593;-68
2022/02/19 06:50:47;;;;;;;;;;;18.90;58.20;;;;;;5052418;28;1902;-69
2022/02/19 06:53:12;;;;;;;;;;;18.90;58.20;;;;;;5051640;28;1443;-69
2022/02/19 06:55:38;;;;;;;;;;;18.90;58.20;;;;;;5052533;28;1343;-68
2022/02/19 06:58:03;;;;;;;;;;;18.90;58.10;;;;;;5051974;28;1500;-68
2022/02/19 07:00:28;;;;;;;;;;;18.90;58.10;;;;;;5051507;28;1638;-69
2022/02/19 07:02:54;;;;;;;;;;;18.90;58.00;;;;;;5033939;28;1381;-68
2022/02/19 07:05:19;;;;;;;;;;;18.90;58.00;;;;;;5052338;28;1202;-68
2022/02/19 07:07:45;;;;;;;;;;;18.90;58.00;;;;;;5051974;28;1625;-68
2022/02/19 07:10:10;;;;;;;;;;;18.90;58.00;;;;;;5051180;28;1973;-69
2022/02/19 07:12:37;;;;;;;;;;;18.90;58.00;;;;;;5052408;28;1681;-68
2022/02/19 07:15:05;;;;;;;;;;;19.00;58.00;;;;;;5052300;28;1461;-68
2022/02/19 07:17:31;;;;;;;;;;;19.00;58.10;;;;;;5051448;28;1423;-67
2022/02/19 07:19:56;;;;;;;;;;;19.00;58.30;;;;;;5051659;28;1737;-66
2022/02/19 07:22:22;;;;;;;;;;;19.00;58.20;;;;;;5052252;28;1403;-66
2022/02/19 07:24:47;;;;;;;;;;;19.00;58.10;;;;;;5051793;28;1238;-66
2022/02/19 07:27:13;;;;;;;;;;;19.00;58.20;;;;;;5034389;28;1334;-66
2022/02/19 07:29:38;;;;;;;;;;;19.00;58.10;;;;;;5044238;28;1959;-66
2022/02/19 07:32:04;;;;;;;;;;;19.00;58.10;;;;;;5015832;28;2152;-67
2022/02/19 07:34:29;;;;;;;;;;;19.00;58.10;;;;;;5027922;28;1813;-67
2022/02/19 07:36:55;;;;;;;;;;;19.00;58.10;;;;;;5050648;28;1594;-69
2022/02/19 07:39:20;;;;;;;;;;;19.00;58.00;;;;;;5052867;28;1619;-68
2022/02/19 07:41:47;;;;;;;;;;;19.00;58.00;;;;;;5053375;28;1679;-69
2022/02/19 07:44:14;;;;;;;;;;;19.00;58.00;;;;;;5054846;28;1579;-68
2022/02/19 07:46:39;;;;;;;;;;;19.00;58.00;;;;;;5037378;28;1536;-65
2022/02/19 08:00:15;;;;;;;;;;;19.00;57.90;;;;;;5055667;28;1327;-69
2022/02/19 08:02:40;;;;;;;;;;;19.00;57.90;;;;;;5052622;28;1278;-70
2022/02/19 08:05:06;;;;;;;;;;;19.00;57.90;;;;;;5022621;28;1527;-69
2022/02/19 08:07:31;;;;;;;;;;;19.00;57.90;;;;;;5055943;28;1621;-69
2022/02/19 08:09:57;;;;;;;;;;;19.00;57.90;;;;;;5052476;28;1971;-67
2022/02/19 08:12:22;;;;;;;;;;;19.00;57.90;;;;;;5053556;28;1543;-70
2022/02/19 08:14:48;;;;;;;;;;;19.00;57.90;;;;;;5055449;28;1523;-68
2022/02/19 08:17:13;;;;;;;;;;;19.10;57.90;;;;;;5055115;28;1730;-69
2022/02/19 08:19:38;;;;;;;;;;;19.10;57.80;;;;;;5036540;28;1658;-68
2022/02/19 08:22:04;;;;;;;;;;;19.10;57.80;;;;;;5054568;28;1438;-68
2022/02/19 08:24:29;;;;;;;;;;;19.20;57.70;;;;;;5054649;28;1362;-70
2022/02/19 08:26:55;;;;;;;;;;;19.30;57.60;;;;;;5036825;28;1639;-68
2022/02/19 08:29:20;;;;;;;;;;;19.40;57.40;;;;;;5055106;28;2234;-68
2022/02/19 08:31:46;;;;;;;;;;;19.50;57.30;;;;;;5054645;28;1625;-69
2022/02/19 08:34:11;;;;;;;;;;;19.60;57.10;;;;;;5037030;28;1645;-68
2022/02/19 08:36:37;;;;;;;;;;;19.70;56.90;;;;;;5054674;28;1667;-70
2022/02/19 08:39:03;;;;;;;;;;;19.80;56.70;;;;;;5054356;28;1730;-68
2022/02/19 08:41:28;;;;;;;;;;;19.90;56.40;;;;;;5054661;28;1384;-68
2022/02/19 08:43:53;;;;;;;;;;;20.00;56.30;;;;;;5045088;28;1316;-67
2022/02/19 08:46:19;;;;;;;;;;;20.10;56.10;;;;;;5050794;28;1215;-67
2022/02/19 08:48:44;;;;;;;;;;;20.10;55.80;;;;;;5047578;28;1604;-69
2022/02/19 08:51:10;;;;;;;;;;;20.20;55.60;;;;;;5011314;28;1902;-67
2022/02/19 08:53:36;;;;;;;;;;;20.30;55.50;;;;;;5047801;28;1378;-67
2022/02/19 08:56:01;;;;;;;;;;;20.30;55.40;;;;;;5046406;28;1283;-67
2022/02/19 08:58:27;;;;;;;;;;;20.40;55.30;;;;;;5029729;28;1488;-68
2022/02/19 09:00:52;;;;;;;;;;;20.40;55.20;;;;;;5029794;28;1383;-68
2022/02/19 09:03:18;;;;;;;;;;;20.40;55.20;;;;;;5027262;28;1437;-69
2022/02/19 09:05:44;;;;;;;;;;;20.50;55.10;;;;;;5047128;28;1176;-68
2022/02/19 09:08:09;;;;;;;;;;;20.50;55.10;;;;;;5031221;28;1296;-68
2022/02/19 09:10:35;;;;;;;;;;;20.50;55.10;;;;;;5046134;28;1911;-67
2022/02/19 09:13:01;;;;;;;;;;;20.50;55.10;;;;;;5027919;28;1383;-68
2022/02/19 09:15:27;;;;;;;;;;;20.50;55.60;;;;;;5043733;28;1275;-68
2022/02/19 09:17:52;;;;;;;;;;;20.50;55.00;;;;;;5045361;28;1355;-68
2022/02/19 09:20:19;;;;;;;;;;;20.50;55.00;;;;;;5034887;28;1594;-67
2022/02/19 09:22:44;;;;;;;;;;;20.50;54.90;;;;;;5053972;28;1697;-68
2022/02/19 09:25:13;;;;;;;;;;;20.50;54.90;;;;;;5053076;28;1188;-69
2022/02/19 09:27:39;;;;;;;;;;;20.50;54.90;;;;;;5048176;28;1318;-69
2022/02/19 09:30:04;;;;;;;;;;;20.50;54.90;;;;;;5051479;28;1954;-68
2022/02/19 09:32:30;;;;;;;;;;;20.50;54.90;;;;;;5035401;28;1708;-69
2022/02/19 09:34:55;;;;;;;;;;;20.50;54.90;;;;;;5051233;28;1365;-67
2022/02/19 09:37:21;;;;;;;;;;;20.50;55.00;;;;;;5035412;28;1716;-68
2022/02/19 09:39:46;;;;;;;;;;;20.50;55.00;;;;;;5052606;28;1645;-69
2022/02/19 09:42:12;;;;;;;;;;;20.50;55.10;;;;;;5052875;28;1590;-68
2022/02/19 09:44:37;;;;;;;;;;;20.40;55.10;;;;;;5051803;28;1396;-68
2022/02/19 09:47:03;;;;;;;;;;;20.40;55.10;;;;;;5052872;28;1656;-68
2022/02/19 09:49:28;;;;;;;;;;;20.40;55.20;;;;;;5050774;28;1902;-68
2022/02/19 09:51:55;;;;;;;;;;;20.40;55.20;;;;;;5053032;28;1378;-68
2022/02/19 09:54:21;;;;;;;;;;;20.40;55.20;;;;;;5051542;28;1618;-69
2022/02/19 09:56:47;;;;;;;;;;;20.40;55.30;;;;;;5052401;28;1421;-68
2022/02/19 09:59:12;;;;;;;;;;;20.40;55.30;;;;;;5051482;28;1346;-68
2022/02/19 10:01:39;;;;;;;;;;;20.30;55.30;;;;;;5034320;28;1611;-68
2022/02/19 10:04:06;;;;;;;;;;;20.30;55.40;;;;;;5047153;28;1147;-68
2022/02/19 10:06:33;;;;;;;;;;;20.30;55.40;;;;;;5046123;28;1289;-68
2022/02/19 10:09:08;;;;;;;;;;;20.30;55.50;;;;;;5033742;28;1456;-68
2022/02/19 10:11:34;;;;;;;;;;;20.30;55.50;;;;;;5026717;28;1891;-67
2022/02/19 10:13:59;;;;;;;;;;;20.30;55.50;;;;;;5027409;28;1376;-66
2022/02/19 10:16:25;;;;;;;;;;;20.30;56.20;;;;;;5044952;28;1709;-68
2022/02/19 10:18:51;;;;;;;;;;;20.30;56.20;;;;;;5024463;28;1501;-67
2022/02/19 10:21:17;;;;;;;;;;;20.30;56.40;;;;;;5044803;28;1243;-67
2022/02/19 10:23:56;;;;;;;;;;;20.30;56.20;;;;;;5026980;28;1466;-66
2022/02/19 10:26:22;;;;;;;;;;;20.30;56.10;;;;;;5027880;28;1624;-68
2022/02/19 10:29:06;;;;;;;;;;;20.20;56.00;;;;;;5043129;28;1443;-67
2022/02/19 10:31:32;;;;;;;;;;;20.20;56.10;;;;;;5027165;28;1895;-68
2022/02/19 10:34:04;;;;;;;;;;;20.20;56.10;;;;;;5044466;28;1406;-68
2022/02/19 10:36:30;;;;;;;;;;;20.20;56.10;;;;;;5025860;28;1299;-67
2022/02/19 10:38:56;;;;;;;;;;;20.20;56.10;;;;;;5009905;28;1513;-68
2022/02/19 10:41:35;;;;;;;;;;;20.20;56.10;;;;;;5042588;28;1411;-67
2022/02/19 10:44:17;;;;;;;;;;;20.20;56.20;;;;;;5026476;28;1498;-68
2022/02/19 10:46:43;;;;;;;;;;;20.20;56.20;;;;;;5027750;28;1299;-67
2022/02/19 10:49:09;;;;;;;;;;;20.10;56.20;;;;;;5045436;28;1327;-67
2022/02/19 10:51:34;;;;;;;;;;;20.10;56.20;;;;;;5044160;28;1965;-68
2022/02/19 10:54:00;;;;;;;;;;;20.10;56.20;;;;;;5024157;28;1173;-67
2022/02/19 10:56:25;;;;;;;;;;;20.10;56.30;;;;;;5044762;28;1392;-67
2022/02/19 10:58:57;;;;;;;;;;;20.10;56.30;;;;;;5041496;28;1474;-66
2022/02/19 11:01:23;;;;;;;;;;;20.10;56.30;;;;;;5024665;28;1908;-66
2022/02/19 11:03:48;;;;;;;;;;;20.10;56.40;;;;;;5044066;28;1377;-67
2022/02/19 11:06:14;;;;;;;;;;;20.00;56.30;;;;;;5010165;28;1404;-66
2022/02/19 11:08:40;;;;;;;;;;;20.00;56.40;;;;;;5048292;28;1474;-67
2022/02/19 11:11:06;;;;;;;;;;;20.00;56.40;;;;;;5036199;28;1902;-68
2022/02/19 11:13:32;;;;;;;;;;;20.00;56.40;;;;;;5037879;28;1734;-67
2022/02/19 11:15:57;;;;;;;;;;;20.00;56.40;;;;;;5037975;28;1565;-66
2022/02/19 11:18:24;;;;;;;;;;;19.90;57.00;;;;;;5037447;28;1685;-66
2022/02/19 11:20:50;;;;;;;;;;;20.00;56.50;;;;;;5055465;28;1352;-67
2022/02/19 11:23:15;;;;;;;;;;;19.90;56.50;;;;;;5038327;28;1705;-66
2022/02/19 11:25:41;;;;;;;;;;;19.90;56.50;;;;;;5021336;28;1642;-67
2022/02/19 11:28:08;;;;;;;;;;;19.90;56.50;;;;;;5037515;28;1597;-67
2022/02/19 11:30:34;;;;;;;;;;;19.90;56.50;;;;;;5023943;28;1922;-66
2022/02/19 11:32:59;;;;;;;;;;;19.90;56.50;;;;;;5037674;28;1417;-66
2022/02/19 11:35:38;;;;;;;;;;;19.90;56.50;;;;;;5054904;28;1970;-65
2022/02/19 11:38:22;;;;;;;;;;;19.90;56.50;;;;;;5037304;28;1594;-66
2022/02/19 11:40:50;;;;;;;;;;;19.90;56.50;;;;;;5054886;28;1629;-67
2022/02/19 11:43:34;;;;;;;;;;;20.00;56.40;;;;;;5054926;28;1445;-66
2022/02/19 11:46:00;;;;;;;;;;;20.00;56.40;;;;;;5055534;28;1670;-65
2022/02/19 11:48:27;;;;;;;;;;;20.10;56.30;;;;;;5053266;28;1621;-66
2022/02/19 11:51:07;;;;;;;;;;;20.10;56.20;;;;;;5054670;28;1945;-65
2022/02/19 11:53:34;;;;;;;;;;;20.20;56.20;;;;;;5037698;28;1788;-65
2022/02/19 11:55:59;;;;;;;;;;;20.20;56.10;;;;;;5054912;28;1567;-66
2022/02/19 11:58:26;;;;;;;;;;;20.20;56.00;;;;;;5054339;28;1625;-65
2022/02/19 12:00:54;;;;;;;;;;;20.20;55.90;;;;;;5053905;28;1099;-66
2022/02/19 12:03:19;;;;;;;;;;;20.20;55.90;;;;;;5055122;28;1410;-67
2022/02/19 12:06:04;;;;;;;;;;;20.20;55.80;;;;;;5053883;28;1985;-68
2022/02/19 12:08:58;;;;;;;;;;;20.30;55.80;;;;;;5053536;28;1515;-69
2022/02/19 12:11:24;;;;;;;;;;;20.30;55.80;;;;;;5051811;28;1956;-68
2022/02/19 12:13:52;;;;;;;;;;;20.30;55.80;;;;;;5054706;28;1565;-68
2022/02/19 12:16:26;;;;;;;;;;;20.30;55.80;;;;;;5054703;28;1621;-68
2022/02/19 12:18:54;;;;;;;;;;;20.30;55.80;;;;;;5054294;28;1584;-68
2022/02/19 12:21:32;;;;;;;;;;;20.30;55.80;;;;;;5053936;28;1658;-68
2022/02/19 12:24:19;;;;;;;;;;;20.30;55.80;;;;;;5030836;28;1309;-68
2022/02/19 12:27:07;;;;;;;;;;;20.30;55.80;;;;;;5045964;28;1013;-68
2022/02/19 12:29:38;;;;;;;;;;;20.30;55.80;;;;;;5043904;28;1969;-67
2022/02/19 12:32:11;;;;;;;;;;;20.30;55.80;;;;;;5046427;28;1203;-68
2022/02/19 12:34:37;;;;;;;;;;;20.30;55.80;;;;;;5046981;28;1304;-68
2022/02/19 12:37:04;;;;;;;;;;;20.30;55.80;;;;;;5054303;28;1285;-67
2022/02/19 12:39:29;;;;;;;;;;;20.20;55.80;;;;;;5035612;28;1417;-68
2022/02/19 12:41:58;;;;;;;;;;;20.20;55.80;;;;;;5052388;28;1413;-68
2022/02/19 12:44:23;;;;;;;;;;;20.20;55.80;;;;;;5053305;28;1060;-67
2022/02/19 12:46:53;;;;;;;;;;;20.20;55.80;;;;;;5054255;28;985;-69
2022/02/19 12:49:19;;;;;;;;;;;20.20;55.80;;;;;;5053368;28;2040;-69
2022/02/19 12:51:52;;;;;;;;;;;20.30;55.90;;;;;;5036595;28;1230;-67
2022/02/19 12:54:39;;;;;;;;;;;20.20;55.90;;;;;;5036350;28;1267;-67
2022/02/19 12:57:06;;;;;;;;;;;20.20;55.90;;;;;;5036058;28;1387;-68
2022/02/19 12:59:32;;;;;;;;;;;20.20;56.00;;;;;;5054050;28;1582;-69
2022/02/19 13:02:01;;;;;;;;;;;20.20;56.00;;;;;;5020113;28;1344;-68
2022/02/19 13:04:36;;;;;;;;;;;20.10;56.00;;;;;;5050948;28;1741;-67
2022/02/19 13:07:02;;;;;;;;;;;20.10;56.10;;;;;;5042696;28;1196;-69
2022/02/19 13:09:27;;;;;;;;;;;20.10;56.10;;;;;;5025794;28;1965;-68
2022/02/19 13:11:53;;;;;;;;;;;20.10;56.20;;;;;;5030592;28;1216;-68
2022/02/19 13:14:19;;;;;;;;;;;20.10;56.20;;;;;;5045865;28;1243;-68
2022/02/19 13:16:56;;;;;;;;;;;20.00;56.30;;;;;;5028043;28;1221;-68
2022/02/19 13:19:22;;;;;;;;;;;20.00;56.30;;;;;;5049453;28;1357;-68
2022/02/19 13:21:47;;;;;;;;;;;20.00;56.40;;;;;;5054345;28;1071;-68
2022/02/19 13:24:16;;;;;;;;;;;20.00;56.40;;;;;;5019396;28;1244;-69
2022/02/19 13:26:41;;;;;;;;;;;20.00;56.40;;;;;;5054350;28;1422;-67
2022/02/19 13:29:07;;;;;;;;;;;20.00;56.40;;;;;;5050104;28;1308;-68
2022/02/19 13:31:32;;;;;;;;;;;20.00;56.40;;;;;;5043257;28;1959;-68
2022/02/19 13:33:58;;;;;;;;;;;20.00;56.40;;;;;;5017769;28;1447;-67
2022/02/19 13:36:24;;;;;;;;;;;20.00;56.50;;;;;;5035206;28;1363;-67
2022/02/19 13:38:50;;;;;;;;;;;20.00;56.50;;;;;;5052478;28;1263;-67
2022/02/19 13:41:16;;;;;;;;;;;20.00;57.40;;;;;;5053170;28;1360;-67
2022/02/19 13:43:42;;;;;;;;;;;20.00;57.20;;;;;;5053437;28;1294;-67
2022/02/19 13:46:14;;;;;;;;;;;20.00;57.00;;;;;;5053337;28;1395;-68
2022/02/19 13:48:40;;;;;;;;;;;19.90;56.90;;;;;;5034243;28;1352;-68
2022/02/19 13:51:06;;;;;;;;;;;20.00;56.90;;;;;;5053333;28;2322;-68
2022/02/19 13:53:32;;;;;;;;;;;20.00;56.90;;;;;;5052208;28;1361;-68
2022/02/19 13:55:58;;;;;;;;;;;19.90;56.90;;;;;;5051993;28;1400;-68
2022/02/19 13:58:31;;;;;;;;;;;20.00;57.00;;;;;;5051300;28;1301;-68
2022/02/19 14:01:09;;;;;;;;;;;19.90;56.90;;;;;;5051763;28;1282;-68
2022/02/19 14:03:44;;;;;;;;;;;19.90;56.80;;;;;;5053114;28;1355;-68
2022/02/19 14:06:28;;;;;;;;;;;19.90;56.90;;;;;;5051968;28;1344;-68
2022/02/19 14:09:09;;;;;;;;;;;19.90;56.90;;;;;;5052409;28;1304;-68
2022/02/19 14:11:34;;;;;;;;;;;19.90;56.80;;;;;;5052408;28;1971;-68
2022/02/19 14:14:00;;;;;;;;;;;19.90;56.80;;;;;;5052220;28;1351;-67
2022/02/19 14:16:25;;;;;;;;;;;19.90;56.80;;;;;;5051275;28;1381;-68
2022/02/19 14:19:00;;;;;;;;;;;19.90;56.80;;;;;;5050921;28;1342;-68
2022/02/19 14:21:25;;;;;;;;;;;19.90;56.80;;;;;;5052910;28;1416;-67
2022/02/19 14:24:04;;;;;;;;;;;19.90;56.80;;;;;;5034140;28;1385;-68
2022/02/19 14:26:29;;;;;;;;;;;19.90;56.80;;;;;;5052505;28;984;-68
2022/02/19 14:28:55;;;;;;;;;;;19.90;56.80;;;;;;5052004;28;1342;-68
2022/02/19 14:31:21;;;;;;;;;;;19.90;56.90;;;;;;5052391;28;1898;-68
2022/02/19 14:33:46;;;;;;;;;;;19.90;56.90;;;;;;5052170;28;1417;-68
2022/02/19 14:36:12;;;;;;;;;;;19.90;56.80;;;;;;5052626;28;1360;-67
2022/02/19 14:38:37;;;;;;;;;;;19.90;56.90;;;;;;5034076;28;1381;-68